createdAt,value
2019-01-31T00:01:53.944Z,0.70
2019-01-31T00:04:35.385Z,0.70
2019-01-31T00:07:25.640Z,0.70
2019-01-31T00:09:59.911Z,0.70
2019-01-31T00:12:49.560Z,0.70
2019-01-31T00:15:26.815Z,0.70
2019-01-31T00:18:00.909Z,0.70
2019-01-31T00:20:48.426Z,0.70
2019-01-31T00:23:41.676Z,0.70
2019-01-31T00:26:19.101Z,0.70
2019-01-31T00:28:59.364Z,0.70
2019-01-31T00:31:51.372Z,0.70
2019-01-31T00:34:38.811Z,0.70
2019-01-31T00:37:25.104Z,0.80
2019-01-31T00:40:06.562Z,0.80
2019-01-31T00:42:38.779Z,0.80
2019-01-31T00:45:32.021Z,0.80
2019-01-31T00:48:22.623Z,0.80
2019-01-31T00:51:10.072Z,0.80
2019-01-31T00:53:56.612Z,0.80
2019-01-31T00:56:37.329Z,0.80
2019-01-31T00:59:24.746Z,0.90
2019-01-31T01:02:04.151Z,0.90
2019-01-31T01:04:50.302Z,0.90
2019-01-31T01:07:25.763Z,0.90
2019-01-31T01:10:19.191Z,0.90
2019-01-31T01:12:56.736Z,0.90
2019-01-31T01:15:37.443Z,0.90
2019-01-31T01:18:28.082Z,0.90
2019-01-31T01:21:21.718Z,1.00
2019-01-31T01:23:56.907Z,0.90
2019-01-31T01:26:35.944Z,1.00
2019-01-31T01:29:22.536Z,1.00
2019-01-31T01:32:08.622Z,1.00
2019-01-31T01:34:46.901Z,1.00
2019-01-31T01:37:37.590Z,1.00
2019-01-31T01:40:37.128Z,1.00
2019-01-31T01:43:11.317Z,1.00
2019-01-31T01:45:47.769Z,1.00
2019-01-31T01:48:41.209Z,1.00
2019-01-31T01:51:31.865Z,1.00
2019-01-31T01:54:25.488Z,1.00
2019-01-31T01:56:56.794Z,1.10
2019-01-31T01:59:47.370Z,1.10
2019-01-31T02:02:33.424Z,1.10
2019-01-31T02:05:38.925Z,1.10
2019-01-31T02:08:20.463Z,1.10
2019-01-31T02:11:06.605Z,1.10
2019-01-31T02:14:00.374Z,1.10
2019-01-31T02:16:59.969Z,1.10
2019-01-31T02:19:46.336Z,1.10
2019-01-31T02:22:17.285Z,1.10
2019-01-31T02:24:51.193Z,1.10
2019-01-31T02:27:44.583Z,1.00
2019-01-31T02:30:25.108Z,1.00
2019-01-31T02:33:11.275Z,1.00
2019-01-31T02:35:56.023Z,1.00
2019-01-31T02:38:31.447Z,1.10
2019-01-31T02:41:27.893Z,1.00
2019-01-31T02:44:15.711Z,1.00
2019-01-31T02:47:01.920Z,1.00
2019-01-31T02:49:53.383Z,1.00
2019-01-31T02:52:55.989Z,1.00
2019-01-31T02:55:42.133Z,1.00
2019-01-31T02:58:30.498Z,1.00
2019-01-31T03:01:23.914Z,1.00
2019-01-31T03:04:12.841Z,1.00
2019-01-31T03:07:03.483Z,1.00
2019-01-31T03:10:00.350Z,1.00
2019-01-31T03:12:37.193Z,1.00
2019-01-31T03:15:10.316Z,1.00
2019-01-31T03:18:04.109Z,1.00
2019-01-31T03:20:57.351Z,1.00
2019-01-31T03:23:50.736Z,1.00
2019-01-31T03:26:28.092Z,1.00
2019-01-31T03:29:25.263Z,1.00
2019-01-31T03:32:17.559Z,1.00
2019-01-31T03:34:59.360Z,0.90
2019-01-31T03:37:49.917Z,0.90
2019-01-31T03:40:31.340Z,0.90
2019-01-31T03:43:18.799Z,0.90
2019-01-31T03:46:12.135Z,0.90
2019-01-31T03:48:49.253Z,0.90
2019-01-31T03:51:21.030Z,0.90
2019-01-31T03:54:00.120Z,0.90
2019-01-31T03:56:43.955Z,0.90
2019-01-31T03:59:14.294Z,0.90
2019-01-31T04:01:56.691Z,0.90
2019-01-31T04:04:27.629Z,0.90
2019-01-31T04:06:55.984Z,0.90
2019-01-31T04:09:24.347Z,0.90
2019-01-31T04:11:52.675Z,0.90
2019-01-31T04:14:21.020Z,0.90
2019-01-31T04:16:49.329Z,0.90
2019-01-31T04:19:17.613Z,0.90
2019-01-31T04:21:45.946Z,0.90
2019-01-31T04:24:14.325Z,0.80
2019-01-31T04:26:42.671Z,0.80
2019-01-31T04:29:10.979Z,0.80
2019-01-31T04:31:39.359Z,0.80
2019-01-31T04:34:07.706Z,0.80
2019-01-31T04:36:36.031Z,0.80
2019-01-31T04:39:06.774Z,0.80
2019-01-31T04:41:35.100Z,0.80
2019-01-31T04:44:03.493Z,0.80
2019-01-31T04:46:31.982Z,0.70
2019-01-31T04:49:00.292Z,0.70
2019-01-31T04:51:28.629Z,0.70
2019-01-31T04:53:58.695Z,0.70
2019-01-31T04:56:27.038Z,0.70
2019-01-31T04:58:55.374Z,0.70
2019-01-31T05:01:26.530Z,0.70
2019-01-31T05:03:53.957Z,0.70
2019-01-31T05:06:22.337Z,0.60
2019-01-31T05:08:50.724Z,0.60
2019-01-31T05:11:19.051Z,0.60
2019-01-31T05:13:47.435Z,0.50
2019-01-31T05:16:15.929Z,0.50
2019-01-31T05:18:44.463Z,0.50
2019-01-31T05:21:13.069Z,0.50
2019-01-31T05:23:41.619Z,0.40
2019-01-31T05:26:10.034Z,0.40
2019-01-31T05:28:38.649Z,0.40
2019-01-31T05:31:07.165Z,0.40
2019-01-31T05:33:35.638Z,0.40
2019-01-31T05:36:04.211Z,0.40
2019-01-31T05:38:32.582Z,0.40
2019-01-31T05:41:00.976Z,0.40
2019-01-31T05:43:29.473Z,0.40
2019-01-31T05:45:58.018Z,0.40
2019-01-31T05:48:26.520Z,0.40
2019-01-31T05:50:55.018Z,0.40
2019-01-31T05:53:23.401Z,0.40
2019-01-31T05:55:51.993Z,0.40
2019-01-31T05:58:20.394Z,0.40
2019-01-31T06:00:48.851Z,0.40
2019-01-31T06:03:17.368Z,0.40
2019-01-31T06:05:45.965Z,0.40
2019-01-31T06:08:14.363Z,0.40
2019-01-31T06:10:44.971Z,0.40
2019-01-31T06:13:13.272Z,0.40
2019-01-31T06:15:41.591Z,0.40
2019-01-31T06:18:09.897Z,0.40
2019-01-31T06:20:38.186Z,0.40
2019-01-31T06:23:06.483Z,0.40
2019-01-31T06:25:34.753Z,0.40
2019-01-31T06:28:03.074Z,0.40
2019-01-31T06:30:31.395Z,0.40
2019-01-31T06:32:59.688Z,0.40
2019-01-31T06:35:27.998Z,0.40
2019-01-31T06:37:56.259Z,0.40
2019-01-31T06:40:24.661Z,0.40
2019-01-31T06:42:52.984Z,0.40
2019-01-31T06:45:21.689Z,0.30
2019-01-31T06:47:50.070Z,0.40
2019-01-31T06:50:18.347Z,0.40
2019-01-31T06:52:46.706Z,0.30
2019-01-31T06:55:14.995Z,0.30
2019-01-31T06:57:43.305Z,0.30
2019-01-31T07:00:13.362Z,0.30
2019-01-31T07:02:41.668Z,0.30
2019-01-31T07:05:09.997Z,0.30
2019-01-31T07:07:38.300Z,0.30
2019-01-31T07:10:08.096Z,0.30
2019-01-31T07:12:36.412Z,0.30
2019-01-31T07:15:05.275Z,0.30
2019-01-31T07:17:33.699Z,0.30
2019-01-31T07:20:01.976Z,0.30
2019-01-31T07:22:30.360Z,0.30
2019-01-31T07:24:58.632Z,0.30
2019-01-31T07:27:26.962Z,0.30
2019-01-31T07:29:55.283Z,0.30
2019-01-31T07:32:23.557Z,0.30
2019-01-31T07:34:51.875Z,0.30
2019-01-31T07:37:20.163Z,0.30
2019-01-31T07:39:48.447Z,0.30
2019-01-31T07:42:16.708Z,0.30
2019-01-31T07:44:45.031Z,0.30
2019-01-31T07:47:13.293Z,0.30
2019-01-31T07:49:41.590Z,0.30
2019-01-31T07:52:10.104Z,0.30
2019-01-31T07:54:38.458Z,0.30
2019-01-31T07:57:06.729Z,0.30
2019-01-31T07:59:35.040Z,0.40
2019-01-31T08:02:03.338Z,0.40
2019-01-31T08:04:31.639Z,0.40
2019-01-31T08:06:59.921Z,0.40
2019-01-31T08:09:28.200Z,0.40
2019-01-31T08:11:56.459Z,0.30
2019-01-31T08:14:24.768Z,0.30
2019-01-31T08:16:53.019Z,0.30
2019-01-31T08:19:21.302Z,0.30
2019-01-31T08:21:49.608Z,0.30
2019-01-31T08:24:17.847Z,0.30
2019-01-31T08:26:46.033Z,0.30
2019-01-31T08:29:14.309Z,0.30
2019-01-31T08:31:42.495Z,0.30
2019-01-31T08:34:10.724Z,0.30
2019-01-31T08:36:39.001Z,0.30
2019-01-31T08:39:08.259Z,0.30
2019-01-31T08:41:36.549Z,0.30
2019-01-31T08:44:04.787Z,0.30
2019-01-31T08:46:33.140Z,0.30
2019-01-31T08:49:01.463Z,0.30
2019-01-31T08:51:29.823Z,0.30
2019-01-31T08:53:58.123Z,0.30
2019-01-31T08:56:26.455Z,0.30
2019-01-31T08:58:54.811Z,0.30
2019-01-31T09:01:23.130Z,0.30
2019-01-31T09:03:51.483Z,0.40
2019-01-31T09:06:19.758Z,0.40
2019-01-31T09:08:48.068Z,0.40
2019-01-31T09:11:16.364Z,0.40
2019-01-31T09:13:44.681Z,0.40
2019-01-31T09:16:12.956Z,0.40
2019-01-31T09:18:41.281Z,0.40
2019-01-31T09:21:12.840Z,0.40
2019-01-31T09:24:01.576Z,0.40
2019-01-31T09:27:04.322Z,0.40
2019-01-31T09:29:54.221Z,0.40
2019-01-31T09:32:25.770Z,0.30
2019-01-31T09:35:19.320Z,0.40
2019-01-31T09:38:19.122Z,0.40
2019-01-31T09:41:03.145Z,0.30
2019-01-31T09:44:05.888Z,0.30
2019-01-31T09:46:48.383Z,0.30
2019-01-31T09:49:32.441Z,0.40
2019-01-31T09:52:25.587Z,0.40
2019-01-31T09:55:16.015Z,0.40
2019-01-31T09:58:03.345Z,0.40
2019-01-31T10:00:53.881Z,0.40
2019-01-31T10:03:47.535Z,0.50
2019-01-31T10:06:50.296Z,0.50
2019-01-31T10:09:33.816Z,0.50
2019-01-31T10:12:19.818Z,0.50
2019-01-31T10:14:50.864Z,0.50
2019-01-31T10:17:32.710Z,0.50
2019-01-31T10:20:20.309Z,0.50
2019-01-31T10:23:22.910Z,0.50
2019-01-31T10:26:19.125Z,0.50
2019-01-31T10:29:06.498Z,0.50
2019-01-31T10:31:54.319Z,0.50
2019-01-31T10:34:44.584Z,0.50
2019-01-31T10:37:31.952Z,0.50
2019-01-31T10:40:25.912Z,0.50
2019-01-31T10:43:13.277Z,0.50
2019-01-31T10:45:53.339Z,0.50
2019-01-31T10:48:39.716Z,0.50
2019-01-31T10:51:21.791Z,0.50
2019-01-31T10:54:08.261Z,0.50
2019-01-31T10:56:55.657Z,0.50
2019-01-31T10:59:51.904Z,0.50
2019-01-31T11:02:34.251Z,0.50
2019-01-31T11:05:28.422Z,0.50
2019-01-31T11:08:24.937Z,0.50
2019-01-31T11:11:05.621Z,0.50
2019-01-31T11:13:50.716Z,0.60
2019-01-31T11:16:50.327Z,0.60
2019-01-31T11:19:23.792Z,0.60
2019-01-31T11:21:59.492Z,0.60
2019-01-31T11:24:49.098Z,0.60
2019-01-31T11:27:54.650Z,0.70
2019-01-31T11:30:26.443Z,0.70
2019-01-31T11:33:12.973Z,0.70
2019-01-31T11:35:48.858Z,0.70
2019-01-31T11:38:39.276Z,0.70
2019-01-31T11:41:26.614Z,0.70
2019-01-31T11:44:23.264Z,0.80
2019-01-31T11:47:13.777Z,0.80
2019-01-31T11:50:01.152Z,0.80
2019-01-31T11:52:51.472Z,0.80
2019-01-31T11:55:34.849Z,0.90
2019-01-31T11:58:19.868Z,0.90
2019-01-31T12:00:48.156Z,0.90
2019-01-31T12:03:16.424Z,0.90
2019-01-31T12:05:44.736Z,0.90
2019-01-31T12:08:13.031Z,0.90
2019-01-31T12:10:41.322Z,0.90
2019-01-31T12:13:09.601Z,0.90
2019-01-31T12:15:37.916Z,0.90
2019-01-31T12:18:06.450Z,0.90
2019-01-31T12:20:34.757Z,0.90
2019-01-31T12:23:03.063Z,0.90
2019-01-31T12:25:31.353Z,1.00
2019-01-31T12:27:59.688Z,1.00
2019-01-31T12:30:28.558Z,1.00
2019-01-31T12:32:56.841Z,1.00
2019-01-31T12:35:25.176Z,1.00
2019-01-31T12:37:53.486Z,1.00
2019-01-31T12:40:21.819Z,1.00
2019-01-31T12:42:50.204Z,1.10
2019-01-31T12:45:18.957Z,1.10
2019-01-31T12:47:47.226Z,1.10
2019-01-31T12:50:16.883Z,1.10
2019-01-31T12:52:45.157Z,1.10
2019-01-31T12:55:13.743Z,1.10
2019-01-31T12:57:42.085Z,1.10
2019-01-31T13:00:21.114Z,1.20
2019-01-31T13:02:49.435Z,1.20
2019-01-31T13:05:17.849Z,1.20
2019-01-31T13:07:46.259Z,1.20
2019-01-31T13:10:14.538Z,1.20
2019-01-31T13:12:48.853Z,1.20
2019-01-31T13:15:13.855Z,1.20
2019-01-31T13:17:42.156Z,1.20
2019-01-31T13:20:12.874Z,1.20
2019-01-31T13:22:42.151Z,1.20
2019-01-31T13:25:10.722Z,1.20
2019-01-31T13:27:39.072Z,1.20
2019-01-31T13:30:08.048Z,1.20
2019-01-31T13:32:36.347Z,1.20
2019-01-31T13:35:05.239Z,1.20
2019-01-31T13:37:33.578Z,1.20
2019-01-31T13:40:01.970Z,1.20
2019-01-31T13:42:30.289Z,1.20
2019-01-31T13:44:58.609Z,1.20
2019-01-31T13:47:26.934Z,1.20
2019-01-31T13:49:55.240Z,1.20
2019-01-31T13:52:23.499Z,1.20
2019-01-31T13:54:51.820Z,1.20
2019-01-31T13:57:20.125Z,1.10
2019-01-31T13:59:48.439Z,1.10
2019-01-31T14:02:16.741Z,1.10
2019-01-31T14:04:45.082Z,1.10
2019-01-31T14:07:13.411Z,1.10
2019-01-31T14:09:41.737Z,1.10
2019-01-31T14:12:09.996Z,1.10
2019-01-31T14:14:38.377Z,1.10
2019-01-31T14:17:06.717Z,1.10
2019-01-31T14:19:35.000Z,1.10
2019-01-31T14:22:03.342Z,1.10
2019-01-31T14:24:31.712Z,1.10
2019-01-31T14:27:00.030Z,1.10
2019-01-31T14:29:28.346Z,1.10
2019-01-31T14:31:56.616Z,1.10
2019-01-31T14:34:24.912Z,1.10
2019-01-31T14:36:53.227Z,1.10
2019-01-31T14:39:21.507Z,1.10
2019-01-31T14:41:49.826Z,1.10
2019-01-31T14:44:20.599Z,1.10
2019-01-31T14:46:48.156Z,1.10
2019-01-31T14:49:18.292Z,1.10
2019-01-31T14:51:46.592Z,1.10
2019-01-31T14:54:14.891Z,1.10
2019-01-31T14:56:43.168Z,1.10
2019-01-31T14:59:11.473Z,1.10
2019-01-31T15:01:39.797Z,1.10
2019-01-31T15:04:08.043Z,1.10
2019-01-31T15:06:36.361Z,1.10
2019-01-31T15:09:08.716Z,1.10
2019-01-31T15:11:38.715Z,1.10
2019-01-31T15:14:07.004Z,1.10
2019-01-31T15:16:35.344Z,1.10
2019-01-31T15:19:03.620Z,1.10
2019-01-31T15:21:32.059Z,1.10
2019-01-31T15:24:00.370Z,1.10
2019-01-31T15:26:29.072Z,1.10
2019-01-31T15:28:57.656Z,1.10
2019-01-31T15:31:25.975Z,1.10
2019-01-31T15:33:54.336Z,1.10
2019-01-31T15:36:22.622Z,1.10
2019-01-31T15:38:50.978Z,1.20
2019-01-31T15:41:19.232Z,1.10
2019-01-31T15:43:47.530Z,1.10
2019-01-31T15:46:17.889Z,1.10
2019-01-31T15:48:45.986Z,1.10
2019-01-31T15:51:14.320Z,1.10
2019-01-31T15:53:58.088Z,1.10
2019-01-31T15:56:56.370Z,1.10
2019-01-31T15:59:54.844Z,1.10
2019-01-31T16:02:23.294Z,1.10
2019-01-31T16:04:51.601Z,1.10
2019-01-31T16:07:19.912Z,1.10
2019-01-31T16:09:48.303Z,1.10
2019-01-31T16:12:16.735Z,1.10
2019-01-31T16:14:54.567Z,1.10
2019-01-31T16:17:15.189Z,1.10
2019-01-31T16:19:43.504Z,1.10
2019-01-31T16:22:12.260Z,1.10
2019-01-31T16:24:40.721Z,1.10
2019-01-31T16:27:09.048Z,1.10
2019-01-31T16:29:37.571Z,1.10
2019-01-31T16:32:05.949Z,1.10
2019-01-31T16:34:34.408Z,1.10
2019-01-31T16:37:02.841Z,1.10
2019-01-31T16:39:31.206Z,1.10
2019-01-31T16:41:59.528Z,1.10
2019-01-31T16:44:27.981Z,1.10
2019-01-31T16:46:56.431Z,1.10
2019-01-31T16:49:24.785Z,1.10
2019-01-31T16:51:53.159Z,1.10
2019-01-31T16:54:21.488Z,1.10
2019-01-31T16:56:49.857Z,1.10
2019-01-31T16:59:18.309Z,1.10
2019-01-31T17:01:46.730Z,1.10
2019-01-31T17:04:15.214Z,1.10
2019-01-31T17:06:43.660Z,1.10
2019-01-31T17:09:11.984Z,1.10
2019-01-31T17:11:40.271Z,1.10
2019-01-31T17:14:08.660Z,1.10
2019-01-31T17:16:36.986Z,1.10
2019-01-31T17:19:05.303Z,1.10
2019-01-31T17:21:33.628Z,1.10
2019-01-31T17:24:01.960Z,1.10
2019-01-31T17:26:30.265Z,1.10
2019-01-31T17:28:58.629Z,1.10
2019-01-31T17:31:26.966Z,1.10
2019-01-31T17:33:55.500Z,1.10
2019-01-31T17:36:24.132Z,1.10
2019-01-31T17:38:52.859Z,1.10
2019-01-31T17:41:21.461Z,1.10
2019-01-31T17:43:49.995Z,1.10
2019-01-31T17:46:18.438Z,1.10
2019-01-31T17:49:00.509Z,1.10
2019-01-31T17:51:29.281Z,1.10
2019-01-31T17:54:01.780Z,1.10
2019-01-31T17:59:11.695Z,1.10
2019-01-31T18:01:40.301Z,1.10
2019-01-31T18:04:08.859Z,1.10
2019-01-31T18:06:37.308Z,1.10
2019-01-31T18:09:08.108Z,1.10
2019-01-31T18:11:36.436Z,1.10
2019-01-31T18:14:05.282Z,1.10
2019-01-31T18:16:33.647Z,1.10
2019-01-31T18:19:02.366Z,1.10
2019-01-31T18:21:30.967Z,1.10
2019-01-31T18:23:59.323Z,1.10
2019-01-31T18:26:27.682Z,1.10
2019-01-31T18:28:56.080Z,1.10
2019-01-31T18:31:24.597Z,1.10
2019-01-31T18:33:52.914Z,1.10
2019-01-31T18:36:21.324Z,1.10
2019-01-31T18:38:49.667Z,1.10
2019-01-31T18:41:18.021Z,1.10
2019-01-31T18:43:46.391Z,1.10
2019-01-31T18:46:14.776Z,1.10
2019-01-31T18:48:43.099Z,1.10
2019-01-31T18:51:11.606Z,1.10
2019-01-31T18:53:40.094Z,1.20
2019-01-31T18:56:08.711Z,1.10
2019-01-31T18:58:37.523Z,1.10
2019-01-31T19:01:05.948Z,1.10
2019-01-31T19:03:34.440Z,1.10
2019-01-31T19:06:03.785Z,1.10
2019-01-31T19:08:32.216Z,1.10
2019-01-31T19:11:00.599Z,1.10
2019-01-31T19:13:29.069Z,1.10
2019-01-31T19:16:04.677Z,1.10
2019-01-31T19:18:27.549Z,1.10
2019-01-31T19:20:55.879Z,1.10
2019-01-31T19:23:24.301Z,1.10
2019-01-31T19:25:52.715Z,1.10
2019-01-31T19:28:21.853Z,1.10
2019-01-31T19:30:50.293Z,1.10
2019-01-31T19:33:18.647Z,1.10
2019-01-31T19:35:46.938Z,1.10
2019-01-31T19:38:15.286Z,1.20
2019-01-31T19:40:44.615Z,1.10
2019-01-31T19:43:13.032Z,1.10
2019-01-31T19:45:45.458Z,1.20
2019-01-31T19:48:13.909Z,1.20
2019-01-31T19:50:43.585Z,1.20
2019-01-31T19:53:12.296Z,1.20
2019-01-31T19:55:40.601Z,1.20
2019-01-31T19:58:09.012Z,1.20
2019-01-31T20:00:37.404Z,1.20
2019-01-31T20:03:06.426Z,1.20
2019-01-31T20:05:35.391Z,1.20
2019-01-31T20:08:04.354Z,1.20
2019-01-31T20:10:32.709Z,1.20
2019-01-31T20:13:15.514Z,1.20
2019-01-31T20:15:44.626Z,1.20
2019-01-31T20:18:12.990Z,1.20
2019-01-31T20:20:42.925Z,1.20
2019-01-31T20:23:11.449Z,1.20
2019-01-31T20:25:39.883Z,1.20
2019-01-31T20:28:08.205Z,1.20
2019-01-31T20:30:36.846Z,1.20
2019-01-31T20:33:06.443Z,1.20
2019-01-31T20:35:35.133Z,1.20
2019-01-31T20:38:03.703Z,1.20
2019-01-31T20:40:33.255Z,1.20
2019-01-31T20:43:01.734Z,1.20
2019-01-31T20:45:30.164Z,1.20
2019-01-31T20:47:58.576Z,1.20
2019-01-31T20:50:28.063Z,1.20
2019-01-31T20:52:56.513Z,1.20
2019-01-31T20:55:27.700Z,1.10
2019-01-31T20:57:56.139Z,1.20
2019-01-31T21:00:30.005Z,1.20
2019-01-31T21:02:58.456Z,1.10
2019-01-31T21:05:26.965Z,1.20
2019-01-31T21:07:55.408Z,1.20
2019-01-31T21:10:26.336Z,1.20
2019-01-31T21:12:54.087Z,1.10
2019-01-31T21:15:22.511Z,1.10
2019-01-31T21:17:50.990Z,1.20
2019-01-31T21:20:19.973Z,1.20
2019-01-31T21:22:48.434Z,1.10
2019-01-31T21:25:16.892Z,1.20
2019-01-31T21:27:45.256Z,1.10
2019-01-31T21:30:15.586Z,1.20
2019-01-31T21:32:44.052Z,1.10
2019-01-31T21:35:12.881Z,1.10
2019-01-31T21:37:41.277Z,1.10
2019-01-31T21:40:10.048Z,1.10
2019-01-31T21:42:39.017Z,1.10
2019-01-31T21:45:08.436Z,1.10
2019-01-31T21:47:36.862Z,1.10
2019-01-31T21:50:06.206Z,1.10
2019-01-31T21:52:34.556Z,1.10
2019-01-31T21:55:02.997Z,1.10
2019-01-31T21:57:31.392Z,1.10
2019-01-31T22:00:00.566Z,1.00
2019-01-31T22:02:29.002Z,1.00
2019-01-31T22:04:57.359Z,1.00
2019-01-31T22:07:25.695Z,1.00
2019-01-31T22:09:54.008Z,1.00
2019-01-31T22:12:22.406Z,1.00
2019-01-31T22:14:50.736Z,0.90
2019-01-31T22:17:19.066Z,0.90
2019-01-31T22:19:47.364Z,0.90
2019-01-31T22:22:15.722Z,0.90
2019-01-31T22:24:44.004Z,0.90
2019-01-31T22:27:12.376Z,0.80
2019-01-31T22:29:40.751Z,0.80
2019-01-31T22:32:09.041Z,0.80
2019-01-31T22:34:37.437Z,0.80
2019-01-31T22:37:05.772Z,0.80
2019-01-31T22:39:34.058Z,0.80
2019-01-31T22:42:02.362Z,0.80
2019-01-31T22:44:31.228Z,0.70
2019-01-31T22:46:59.921Z,0.70
2019-01-31T22:49:28.570Z,0.70
2019-01-31T22:51:57.225Z,0.70
2019-01-31T22:54:25.802Z,0.70
2019-01-31T22:56:54.457Z,0.70
2019-01-31T22:59:23.290Z,0.70
2019-01-31T23:01:54.553Z,0.60
2019-01-31T23:04:22.828Z,0.60
2019-01-31T23:06:51.130Z,0.60
2019-01-31T23:09:19.437Z,0.60
2019-01-31T23:11:47.782Z,0.60
2019-01-31T23:14:16.167Z,0.60
2019-01-31T23:16:44.488Z,0.60
2019-01-31T23:19:12.766Z,0.50
2019-01-31T23:21:41.037Z,0.50
2019-01-31T23:24:09.447Z,0.50
2019-01-31T23:26:37.757Z,0.50
2019-01-31T23:29:06.209Z,0.40
2019-01-31T23:31:34.553Z,0.40
2019-01-31T23:34:02.862Z,0.40
2019-01-31T23:36:31.204Z,0.40
2019-01-31T23:38:59.482Z,0.40
2019-01-31T23:41:27.794Z,0.40
2019-01-31T23:43:56.072Z,0.40
2019-01-31T23:46:24.376Z,0.40
2019-01-31T23:48:52.648Z,0.40
2019-01-31T23:51:20.960Z,0.40
2019-01-31T23:53:49.233Z,0.40
2019-01-31T23:56:17.547Z,0.40
2019-01-31T23:58:45.845Z,0.30
